Pitts, Georgia
Current Conditions -  °F | °C
As of 9:15 AM on Sunday 25 Jan 2015 (Local Time) from KCKF Reporting Station
Clear Clear  
Wind Chill: 42°   Ceiling: Unl
Heat Index: 42°   Visibility: 10mi
Dew Point: 35°   Wind: 3mph
Humidity: 78%   Direction: 210°SSW
Pressure: 30.04"   Gusts: NA
Location:  31.94°N, 83.54°W
Report Text: KCKF 251415Z AUTO 21003KT 10SM CLR 05/02 A3004 RMK AO2 T00540019
Loading
Personal Weather Stations






























Interactive Weather Map New forecast layout! Learn more

10-Day Weather Forecast

Advertisements
Track Severe Weather on mobile